Terminal Aerodrome Forecast
Issued by NWS

Home | Current Version | Previous Version | Text Only | Print | Product List | Glossary On
Versions: 1 2 3 4 5 6 7 8 9 10 11 12 13 14 15 16 17 18 19 20 21 22 23 24 25 26 27 28
000
FTUS44 KLIX 222300 RRA
TAFHDC
TAF
KHDC 222343Z 2300/2324 21008KT P6SM BKN020
     FM230300 18005KT 5SM BR BKN008
      TEMPO 2309/2312 2SM BR OVC003
     FM231400 14004KT P6SM BKN008
     FM231500 15007KT P6SM VCTS OVC015CB=

USA.gov is the U.S. government's official web portal to all federal, state and local government web resources and services.